Eastbourne, New Zealand
Current Conditions -  °F | °C
As of 10:00 PM on Tuesday 21 Oct 2014 (Local Time) from NZWN Reporting Station
Broken Clouds Broken Clouds  
Wind Chill: 54°   Ceiling: 7000
Heat Index: 54°   Visibility: 6mi
Dew Point: 43°   Wind: 16mph
Humidity: 67%   Direction: 150°SSE
Pressure: 30.21"   Gusts: NA
Location:  41.29°S, 174.89°E
Report Text: NZWN 210900Z AUTO 15014KT 9999 BKN070/// 12/06 Q1023 NOSIG
Loading
Personal Weather Stations






























Interactive Weather Map
Tropical Storm Tracking
New forecast layout! Learn more

10-Day Weather Forecast

Advertisements
Track Severe Weather on mobile